Time;durP1;ratioP1;P1;durP2;ratioP2;P2;SDS_P1;SDS_P2;PMS_P1;PMS_P2;Temp;Humidity;BMP_temperature;BMP_pressure;BME280_temperature;BME280_humidity;BME280_pressure;Samples;Min_cycle;Max_cycle;Signal;HPM_P1;HPM_P2
2023/02/20 00:00:04;;;;;;;1.98;1.73;;;1.70;99.90;;;;;;7380347;19;20341;-78
2023/02/20 00:02:31;;;;;;;2.60;1.98;;;1.60;99.90;;;;;;7381557;19;20450;-79
2023/02/20 00:04:57;;;;;;;2.47;1.93;;;1.80;99.90;;;;;;7378808;19;20416;-77
2023/02/20 00:07:23;;;;;;;2.13;1.95;;;1.60;99.90;;;;;;7378963;19;20466;-78
2023/02/20 00:09:48;;;;;;;3.33;1.70;;;1.60;99.90;;;;;;7377695;19;20343;-79
2023/02/20 00:12:14;;;;;;;2.10;1.90;;;1.60;99.90;;;;;;7378185;19;20844;-79
2023/02/20 00:14:40;;;;;;;2.75;1.85;;;1.60;99.90;;;;;;7378697;19;20348;-79
2023/02/20 00:17:05;;;;;;;3.03;2.00;;;1.60;99.90;;;;;;7377164;19;20352;-77
2023/02/20 00:19:31;;;;;;;2.63;1.80;;;1.50;99.90;;;;;;7377277;19;20421;-81
2023/02/20 00:21:56;;;;;;;2.60;1.80;;;1.50;99.90;;;;;;7379115;19;20844;-80
2023/02/20 00:24:23;;;;;;;2.40;2.20;;;1.40;99.90;;;;;;7375703;19;20352;-78
2023/02/20 00:26:51;;;;;;;2.45;1.83;;;1.40;99.90;;;;;;7375238;19;21036;-81
2023/02/20 00:29:17;;;;;;;2.08;1.90;;;1.40;99.90;;;;;;7377826;19;20318;-80
2023/02/20 00:31:48;;;;;;;2.80;1.90;;;1.40;99.90;;;;;;7377978;19;20324;-79
2023/02/20 00:34:14;;;;;;;2.10;1.90;;;1.40;99.90;;;;;;7379619;19;20308;-78
2023/02/20 00:36:39;;;;;;;3.50;1.90;;;1.40;99.90;;;;;;7379508;19;20319;-84
2023/02/20 00:39:05;;;;;;;2.20;1.98;;;1.30;99.90;;;;;;7376212;19;20999;-78
2023/02/20 00:41:31;;;;;;;2.63;1.90;;;1.30;99.90;;;;;;7378334;19;20340;-80
2023/02/20 00:43:57;;;;;;;3.20;1.75;;;1.20;99.90;;;;;;7379119;19;21010;-83
2023/02/20 00:46:22;;;;;;;2.00;1.73;;;1.20;99.90;;;;;;7377947;19;20345;-80
2023/02/20 00:48:49;;;;;;;3.03;2.20;;;1.20;99.90;;;;;;7375167;19;20351;-80
2023/02/20 00:51:35;;;;;;;1.95;1.75;;;1.20;99.90;;;;;;7378476;19;20339;-80
2023/02/20 00:54:01;;;;;;;4.43;2.15;;;1.20;99.90;;;;;;7378452;19;20329;-80
2023/02/20 00:56:26;;;;;;;2.83;2.17;;;1.10;99.90;;;;;;7378495;19;20671;-83
2023/02/20 00:58:52;;;;;;;2.53;1.93;;;1.10;99.90;;;;;;7377778;19;20332;-82
2023/02/20 01:01:17;;;;;;;2.95;2.00;;;1.10;99.90;;;;;;7378947;19;20353;-85
2023/02/20 01:03:43;;;;;;;2.63;2.20;;;1.10;99.90;;;;;;7377583;19;20320;-80
2023/02/20 01:06:08;;;;;;;2.65;2.20;;;1.00;99.90;;;;;;7377208;19;20316;-80
2023/02/20 01:08:34;;;;;;;2.30;2.00;;;1.00;99.90;;;;;;7378347;19;20897;-79
2023/02/20 01:11:02;;;;;;;3.85;2.35;;;1.00;99.90;;;;;;7376469;19;21213;-81
2023/02/20 01:13:28;;;;;;;2.00;1.90;;;1.00;99.90;;;;;;7377639;19;20337;-81
2023/02/20 01:15:54;;;;;;;2.35;1.80;;;1.00;99.90;;;;;;7379155;19;20337;-82
2023/02/20 01:18:19;;;;;;;2.20;2.00;;;1.00;99.90;;;;;;7378120;19;21073;-79
2023/02/20 01:20:45;;;;;;;1.90;1.80;;;0.90;99.90;;;;;;7376484;19;20342;-81
2023/02/20 01:23:11;;;;;;;4.23;2.20;;;0.90;99.90;;;;;;7375144;19;20308;-84
2023/02/20 01:25:36;;;;;;;2.67;2.40;;;0.90;99.90;;;;;;7378540;19;20328;-79
2023/02/20 01:28:02;;;;;;;2.17;1.90;;;0.90;99.90;;;;;;7377075;19;21240;-80
2023/02/20 01:30:28;;;;;;;1.83;1.73;;;0.90;99.90;;;;;;7375057;19;20309;-80
2023/02/20 01:32:53;;;;;;;3.15;2.17;;;0.90;99.90;;;;;;7378700;19;20305;-81
2023/02/20 01:35:19;;;;;;;3.70;2.20;;;0.80;99.90;;;;;;7384319;19;20533;-81
2023/02/20 01:37:45;;;;;;;2.85;2.00;;;0.80;99.90;;;;;;7386108;19;20933;-80
2023/02/20 01:40:23;;;;;;;3.58;2.20;;;0.80;99.90;;;;;;7382384;19;20317;-81
2023/02/20 01:42:49;;;;;;;2.30;2.10;;;0.80;99.90;;;;;;7281598;19;2004641;-78
2023/02/20 01:45:38;;;;;;;3.27;1.87;;;0.80;99.90;;;;;;7383089;19;20352;-79
2023/02/20 01:48:04;;;;;;;2.58;2.20;;;0.80;99.90;;;;;;7279649;19;2004219;-80
2023/02/20 01:50:32;;;;;;;2.55;2.20;;;0.70;99.90;;;;;;7382026;19;20328;-77
2023/02/20 01:53:00;;;;;;;2.30;2.10;;;0.70;99.90;;;;;;7373841;19;21109;-79
2023/02/20 01:55:31;;;;;;;3.53;2.13;;;0.70;99.90;;;;;;7379065;19;20320;-79
2023/02/20 01:58:10;;;;;;;2.17;1.98;;;0.70;99.90;;;;;;7383372;19;20399;-80
2023/02/20 02:00:35;;;;;;;3.25;2.20;;;0.70;99.90;;;;;;7380508;19;20308;-82
2023/02/20 02:03:08;;;;;;;2.63;2.43;;;0.60;99.90;;;;;;7385402;19;20333;-81
2023/02/20 02:05:36;;;;;;;3.65;2.63;;;0.70;99.90;;;;;;7383967;19;20361;-79
2023/02/20 02:08:02;;;;;;;3.20;2.20;;;0.70;99.90;;;;;;7381634;19;20312;-84
2023/02/20 02:10:35;;;;;;;2.55;2.30;;;0.70;99.90;;;;;;7381007;19;20324;-81
2023/02/20 02:13:00;;;;;;;4.78;2.67;;;0.70;99.90;;;;;;7384576;19;20348;-84
2023/02/20 02:15:26;;;;;;;2.57;2.37;;;0.70;99.90;;;;;;7381652;19;20387;-80
2023/02/20 02:18:05;;;;;;;3.45;2.50;;;0.80;99.90;;;;;;7382648;19;20328;-84
2023/02/20 02:20:40;;;;;;;3.00;2.50;;;0.80;99.90;;;;;;7382437;19;20313;-80
2023/02/20 02:23:17;;;;;;;3.08;2.55;;;0.80;99.90;;;;;;7381933;19;20676;-82
2023/02/20 02:25:59;;;;;;;4.03;2.77;;;0.80;99.90;;;;;;7382330;19;20301;-82
2023/02/20 02:28:43;;;;;;;3.67;2.58;;;0.90;99.90;;;;;;7281067;19;2004317;-79
2023/02/20 02:31:26;;;;;;;2.75;2.40;;;0.90;99.90;;;;;;7383306;19;20313;-80
2023/02/20 02:34:17;;;;;;;3.23;2.67;;;1.00;99.90;;;;;;7281888;19;2004355;-81
2023/02/20 02:36:54;;;;;;;4.15;2.67;;;1.00;99.90;;;;;;7382817;19;20313;-79
2023/02/20 02:39:34;;;;;;;3.67;2.72;;;1.00;99.90;;;;;;7277619;19;2004524;-80
2023/02/20 02:42:19;;;;;;;2.67;2.47;;;1.00;99.90;;;;;;7383418;19;20866;-79
2023/02/20 02:44:57;;;;;;;3.10;2.43;;;1.10;99.90;;;;;;7380131;19;20330;-79
2023/02/20 02:47:34;;;;;;;3.95;2.97;;;1.10;99.90;;;;;;7280720;19;2004196;-79
2023/02/20 02:50:21;;;;;;;3.45;2.55;;;1.20;99.90;;;;;;7378069;19;20320;-82
2023/02/20 02:52:47;;;;;;;4.05;2.90;;;1.20;99.90;;;;;;7383799;19;20316;-81
2023/02/20 02:55:24;;;;;;;3.97;2.88;;;1.20;99.90;;;;;;7379107;19;20305;-82
2023/02/20 02:57:50;;;;;;;3.72;2.85;;;1.30;99.90;;;;;;7279124;19;2004366;-79
2023/02/20 03:00:19;;;;;;;3.43;2.80;;;1.30;99.90;;;;;;7380666;19;21222;-82
2023/02/20 03:03:14;;;;;;;3.67;2.60;;;1.40;99.90;;;;;;7381386;19;20319;-80
2023/02/20 03:05:51;;;;;;;3.88;2.80;;;1.40;99.90;;;;;;7279633;19;2007861;-81
2023/02/20 03:08:29;;;;;;;3.20;2.63;;;1.40;99.90;;;;;;7382931;19;20300;-79
2023/02/20 03:10:56;;;;;;;3.90;2.58;;;1.40;99.90;;;;;;7279445;19;2004342;-79
2023/02/20 03:16:08;;;;;;;3.13;2.83;;;1.40;99.90;;;;;;7383042;19;20304;-82
2023/02/20 03:18:37;;;;;;;3.10;2.80;;;1.40;99.90;;;;;;7384470;19;20921;-83
2023/02/20 03:21:07;;;;;;;2.90;2.55;;;1.50;99.90;;;;;;7381898;19;20707;-83
2023/02/20 03:23:35;;;;;;;3.17;2.88;;;1.50;99.90;;;;;;7382019;19;20392;-81
2023/02/20 03:26:09;;;;;;;2.97;2.67;;;1.50;99.90;;;;;;7382485;19;20924;-80
2023/02/20 03:28:38;;;;;;;3.33;2.65;;;1.50;99.90;;;;;;7382602;19;20292;-81
2023/02/20 03:31:18;;;;;;;3.92;3.05;;;1.60;99.90;;;;;;7380906;19;20360;-83
2023/02/20 03:44:56;;;;;;;3.45;3.00;;;1.70;99.90;;;;;;7279294;19;2004430;-80
2023/02/20 03:47:21;;;;;;;2.92;2.70;;;1.70;99.90;;;;;;7382067;19;20304;-80
2023/02/20 03:49:48;;;;;;;3.20;2.90;;;1.70;99.90;;;;;;7381587;19;20667;-83
2023/02/20 03:52:16;;;;;;;2.85;2.50;;;1.70;99.90;;;;;;7379370;19;20336;-79
2023/02/20 03:54:41;;;;;;;3.80;2.92;;;1.70;99.90;;;;;;7380898;19;20315;-81
2023/02/20 03:57:11;;;;;;;3.35;2.58;;;1.70;99.90;;;;;;7381863;19;20655;-81
2023/02/20 03:59:42;;;;;;;3.22;2.92;;;1.70;99.90;;;;;;7381548;19;20380;-83
2023/02/20 04:02:13;;;;;;;4.57;2.97;;;1.70;99.90;;;;;;7380621;19;20320;-80
2023/02/20 04:04:51;;;;;;;2.90;2.57;;;1.70;99.90;;;;;;7382258;19;20359;-82
2023/02/20 04:08:01;;;;;;;3.15;2.85;;;1.70;99.90;;;;;;7382202;19;20351;-81
2023/02/20 04:10:31;;;;;;;10.85;8.20;;;1.80;99.90;;;;;;7176077;19;2004529;-82
2023/02/20 04:12:57;;;;;;;26.13;13.70;;;1.80;99.90;;;;;;7381721;19;20309;-82
2023/02/20 04:15:23;;;;;;;23.63;13.23;;;1.80;99.90;;;;;;7382179;19;20323;-84
2023/02/20 04:17:57;;;;;;;8.80;6.53;;;1.80;99.90;;;;;;7381557;19;20421;-79
2023/02/20 04:20:22;;;;;;;4.60;4.10;;;1.80;99.90;;;;;;7378355;19;20860;-81
2023/02/20 04:23:00;;;;;;;4.13;3.60;;;1.90;99.90;;;;;;7381003;19;20830;-81
2023/02/20 04:25:36;;;;;;;4.57;3.20;;;1.90;99.90;;;;;;7381024;19;20393;-80
2023/02/20 04:28:03;;;;;;;5.60;3.00;;;2.00;99.90;;;;;;7381214;19;20305;-84
2023/02/20 04:30:30;;;;;;;3.17;2.90;;;2.00;99.90;;;;;;7377319;19;20847;-82
2023/02/20 04:32:56;;;;;;;5.05;3.20;;;2.00;99.90;;;;;;7380246;19;20322;-78
2023/02/20 04:35:22;;;;;;;5.07;3.10;;;2.10;99.90;;;;;;7377545;19;20380;-77
2023/02/20 04:37:49;;;;;;;3.95;3.30;;;2.10;99.90;;;;;;7380297;19;20312;-81
2023/02/20 04:40:16;;;;;;;3.43;3.10;;;2.20;99.90;;;;;;7379146;19;20632;-79
2023/02/20 04:42:42;;;;;;;3.63;3.33;;;2.30;99.90;;;;;;7378226;19;20344;-78
2023/02/20 04:45:07;;;;;;;3.20;2.90;;;2.30;99.90;;;;;;7378634;19;21072;-79
2023/02/20 04:47:33;;;;;;;3.67;3.17;;;2.40;99.90;;;;;;7378410;19;20312;-79
2023/02/20 04:49:59;;;;;;;5.97;3.37;;;2.50;99.90;;;;;;7377234;19;20313;-79
2023/02/20 04:52:24;;;;;;;4.72;3.30;;;2.50;99.90;;;;;;7380300;19;20317;-79
2023/02/20 04:54:51;;;;;;;3.90;3.42;;;2.60;99.90;;;;;;7379495;19;20343;-78
2023/02/20 04:57:19;;;;;;;3.80;3.43;;;2.70;99.90;;;;;;7379884;19;20308;-82
2023/02/20 04:59:45;;;;;;;4.32;3.20;;;2.80;99.90;;;;;;7377280;19;20313;-77
2023/02/20 05:02:11;;;;;;;3.58;3.28;;;2.90;99.90;;;;;;7377347;19;21034;-80
2023/02/20 05:04:36;;;;;;;3.77;3.13;;;2.90;99.90;;;;;;7376653;19;20424;-83
2023/02/20 05:07:03;;;;;;;4.15;3.15;;;3.00;99.90;;;;;;7380190;19;20316;-83
2023/02/20 05:09:29;;;;;;;3.33;3.00;;;3.10;99.90;;;;;;7385115;19;20388;-80
2023/02/20 05:11:54;;;;;;;3.50;3.17;;;3.20;99.90;;;;;;7387358;19;20730;-79
2023/02/20 05:14:20;;;;;;;3.25;2.95;;;3.30;99.90;;;;;;7382464;19;20393;-80
2023/02/20 05:16:46;;;;;;;3.80;3.50;;;3.40;99.90;;;;;;7385094;19;20841;-79
2023/02/20 05:19:12;;;;;;;3.83;3.42;;;3.50;99.90;;;;;;7381113;19;20363;-77
2023/02/20 05:24:27;;;;;;;4.50;3.20;;;3.70;99.90;;;;;;7279234;19;2004282;-77
2023/02/20 05:26:53;;;;;;;4.07;3.30;;;3.70;99.90;;;;;;7381213;19;20324;-79
2023/02/20 05:29:18;;;;;;;4.30;3.30;;;3.80;99.90;;;;;;7382104;19;20392;-78
2023/02/20 05:31:44;;;;;;;3.35;3.08;;;3.80;99.90;;;;;;7380235;19;20893;-77
2023/02/20 05:34:09;;;;;;;4.63;3.80;;;3.80;99.90;;;;;;7379717;19;20328;-82
2023/02/20 05:36:35;;;;;;;3.75;3.45;;;3.80;99.90;;;;;;7378639;19;20353;-83
2023/02/20 05:39:02;;;;;;;4.73;3.37;;;3.80;99.90;;;;;;7378873;19;20379;-79
2023/02/20 05:41:28;;;;;;;4.00;3.60;;;3.90;99.90;;;;;;7383834;19;20941;-82
2023/02/20 05:43:57;;;;;;;4.57;3.50;;;3.90;99.90;;;;;;7386891;19;20344;-83
2023/02/20 05:46:23;;;;;;;3.60;3.30;;;4.00;99.90;;;;;;7385776;19;20391;-83
2023/02/20 05:48:50;;;;;;;4.47;3.58;;;4.00;99.90;;;;;;7387713;19;20421;-82
2023/02/20 05:51:25;;;;;;;3.75;3.45;;;4.10;99.90;;;;;;7380871;19;20316;-79
2023/02/20 05:53:51;;;;;;;4.07;3.65;;;4.10;99.90;;;;;;7277610;19;2019166;-82
2023/02/20 05:56:16;;;;;;;4.17;3.77;;;4.10;99.90;;;;;;7381730;19;20324;-81
2023/02/20 05:58:45;;;;;;;4.13;3.72;;;4.10;99.90;;;;;;7381699;19;20328;-80
2023/02/20 06:01:21;;;;;;;4.60;4.00;;;4.20;99.90;;;;;;7377565;19;20667;-80
2023/02/20 06:03:47;;;;;;;4.53;3.90;;;4.10;99.90;;;;;;7379576;19;20320;-80
2023/02/20 06:06:13;;;;;;;4.33;3.93;;;4.10;99.90;;;;;;7380307;19;20309;-79
2023/02/20 06:08:40;;;;;;;5.10;4.60;;;4.20;99.90;;;;;;7381809;19;22163;-80
2023/02/20 06:11:06;;;;;;;4.95;4.25;;;4.20;99.90;;;;;;7378600;19;20312;-80
2023/02/20 06:13:32;;;;;;;4.67;4.27;;;4.30;99.90;;;;;;7376830;19;20331;-77
2023/02/20 06:15:58;;;;;;;4.93;4.40;;;4.30;99.90;;;;;;7378222;19;20663;-78
2023/02/20 06:18:23;;;;;;;5.03;4.40;;;4.30;99.90;;;;;;7375962;19;20321;-76
2023/02/20 06:20:49;;;;;;;5.80;4.53;;;4.30;99.90;;;;;;7376588;19;20329;-78
2023/02/20 06:23:15;;;;;;;5.97;4.60;;;4.40;99.90;;;;;;7384777;19;20416;-84
2023/02/20 06:25:40;;;;;;;5.03;4.53;;;4.50;99.90;;;;;;7382694;19;20427;-82
2023/02/20 06:28:06;;;;;;;5.17;4.67;;;4.50;99.90;;;;;;7384212;19;20379;-86
2023/02/20 06:30:31;;;;;;;4.88;4.38;;;4.50;99.90;;;;;;7383186;19;20320;-80
2023/02/20 06:32:57;;;;;;;6.73;4.90;;;4.70;99.90;;;;;;7390811;19;20343;-86
2023/02/20 06:35:23;;;;;;;5.30;4.50;;;4.70;99.90;;;;;;7398055;19;20320;-90
2023/02/20 06:37:48;;;;;;;5.20;4.70;;;4.70;99.90;;;;;;7397800;19;20332;-81
2023/02/20 06:40:14;;;;;;;5.03;4.57;;;4.70;99.90;;;;;;7387642;19;20312;-83
2023/02/20 06:42:39;;;;;;;5.90;4.93;;;4.70;99.90;;;;;;7384703;19;20444;-82
2023/02/20 06:45:05;;;;;;;6.15;4.60;;;4.70;99.90;;;;;;7376285;19;20359;-76
2023/02/20 06:47:31;;;;;;;5.88;4.63;;;4.80;99.90;;;;;;7379478;19;20397;-80
2023/02/20 06:49:57;;;;;;;5.27;4.77;;;4.90;99.90;;;;;;7374722;19;20320;-78
2023/02/20 06:52:22;;;;;;;6.80;5.43;;;4.90;99.90;;;;;;7378095;19;20964;-78
2023/02/20 06:54:48;;;;;;;6.43;5.23;;;5.00;99.90;;;;;;7377834;19;20317;-80
2023/02/20 06:57:14;;;;;;;6.43;5.03;;;5.00;99.90;;;;;;7380698;19;20328;-78
2023/02/20 06:59:41;;;;;;;8.07;6.03;;;5.10;99.90;;;;;;7377432;19;20934;-78
2023/02/20 07:02:15;;;;;;;7.65;6.40;;;5.10;99.90;;;;;;7377863;19;20324;-78
2023/02/20 07:04:41;;;;;;;5.57;4.85;;;5.10;99.90;;;;;;7378210;19;20331;-80
2023/02/20 07:07:07;;;;;;;5.23;4.73;;;5.10;99.90;;;;;;7380860;19;20658;-80
2023/02/20 07:09:32;;;;;;;5.93;5.07;;;5.20;99.90;;;;;;7378473;19;20332;-75
2023/02/20 07:11:58;;;;;;;5.93;5.27;;;5.20;99.90;;;;;;7379546;19;20378;-81
2023/02/20 07:14:23;;;;;;;6.65;5.22;;;5.20;99.90;;;;;;7379439;19;20671;-81
2023/02/20 07:16:49;;;;;;;6.00;5.40;;;5.20;99.90;;;;;;7380331;19;20321;-82
2023/02/20 07:19:15;;;;;;;6.53;5.30;;;5.30;99.90;;;;;;7378533;19;20861;-80
2023/02/20 07:21:41;;;;;;;6.60;5.27;;;5.40;99.90;;;;;;7379564;19;20316;-78
2023/02/20 07:24:07;;;;;;;6.25;5.55;;;5.40;99.90;;;;;;7379415;19;20328;-80
2023/02/20 07:26:34;;;;;;;6.83;5.50;;;5.50;99.90;;;;;;7379486;19;20328;-81
2023/02/20 07:28:59;;;;;;;7.20;5.78;;;5.50;99.90;;;;;;7377585;19;20321;-85
2023/02/20 07:31:26;;;;;;;6.33;5.73;;;5.60;99.90;;;;;;7376448;19;20408;-78
2023/02/20 07:33:51;;;;;;;7.15;5.75;;;5.70;99.90;;;;;;7376922;19;21365;-79
2023/02/20 07:36:17;;;;;;;6.60;6.00;;;5.70;99.90;;;;;;7378969;19;20313;-77
2023/02/20 07:38:52;;;;;;;7.40;6.50;;;5.80;99.90;;;;;;7377441;19;20305;-79
2023/02/20 07:41:17;;;;;;;7.97;6.10;;;5.90;99.90;;;;;;7376279;19;20329;-77
2023/02/20 07:43:43;;;;;;;6.60;5.90;;;5.90;99.90;;;;;;7373727;19;20388;-80
2023/02/20 07:46:08;;;;;;;7.68;5.97;;;6.00;99.90;;;;;;7375392;19;20425;-78
2023/02/20 07:48:35;;;;;;;7.03;5.97;;;6.00;99.90;;;;;;7377168;19;20328;-79
2023/02/20 07:51:01;;;;;;;7.50;6.05;;;6.10;99.90;;;;;;7377893;19;20385;-81
2023/02/20 07:53:28;;;;;;;12.90;10.55;;;6.10;99.90;;;;;;7374173;19;20345;-80
2023/02/20 07:55:53;;;;;;;7.15;6.45;;;6.10;99.90;;;;;;7380631;19;20312;-80
2023/02/20 07:58:19;;;;;;;7.43;6.18;;;6.10;99.90;;;;;;7382239;19;20325;-83
2023/02/20 08:00:44;;;;;;;6.80;5.63;;;6.10;99.90;;;;;;7380073;19;20341;-79
2023/02/20 08:03:10;;;;;;;8.02;5.80;;;6.10;99.90;;;;;;7382988;19;20371;-82
2023/02/20 08:05:36;;;;;;;6.77;5.93;;;6.10;99.90;;;;;;7383432;19;20865;-82
2023/02/20 08:08:01;;;;;;;8.43;5.57;;;6.20;99.90;;;;;;7382311;19;20328;-81
2023/02/20 08:10:27;;;;;;;6.23;5.00;;;6.20;99.90;;;;;;7381685;19;20308;-93
2023/02/20 08:12:53;;;;;;;7.05;5.28;;;6.40;99.90;;;;;;7381746;19;20334;-81
2023/02/20 08:15:19;;;;;;;7.00;5.30;;;6.40;99.90;;;;;;7383760;19;20307;-80
2023/02/20 08:18:03;;;;;;;5.90;5.05;;;6.40;99.90;;;;;;7403078;19;20340;-89
2023/02/20 08:20:29;;;;;;;5.40;4.90;;;6.50;99.90;;;;;;7291063;19;2004228;-80
2023/02/20 08:22:55;;;;;;;7.07;5.83;;;6.60;99.90;;;;;;7386614;19;20320;-81
2023/02/20 08:25:20;;;;;;;5.18;4.57;;;6.70;99.90;;;;;;7386195;19;20313;-79
2023/02/20 08:27:47;;;;;;;6.10;4.50;;;6.90;99.90;;;;;;7388314;19;20301;-94
2023/02/20 08:30:22;;;;;;;5.28;4.13;;;6.80;99.90;;;;;;7390269;19;20292;-82
2023/02/20 08:32:48;;;;;;;5.60;4.25;;;6.90;99.90;;;;;;7395234;19;20309;-86
2023/02/20 08:35:14;;;;;;;3.90;3.50;;;7.00;99.90;;;;;;7394844;19;20957;-86
2023/02/20 08:37:39;;;;;;;6.07;4.20;;;7.10;99.90;;;;;;7397148;19;20840;-84
2023/02/20 08:40:07;;;;;;;4.43;3.70;;;7.20;99.90;;;;;;7390676;19;20368;-82
2023/02/20 08:42:33;;;;;;;3.90;3.50;;;7.10;99.90;;;;;;7383643;19;20449;-78
2023/02/20 08:44:59;;;;;;;4.20;3.58;;;7.20;99.90;;;;;;7386862;19;20356;-79
2023/02/20 08:47:26;;;;;;;3.90;3.58;;;7.20;99.90;;;;;;7387290;19;20301;-80
2023/02/20 08:49:51;;;;;;;4.85;3.55;;;7.20;99.90;;;;;;7386649;19;20320;-78
2023/02/20 08:52:17;;;;;;;4.40;3.50;;;7.10;99.90;;;;;;7389516;19;20352;-77
2023/02/20 08:54:46;;;;;;;3.40;3.10;;;7.10;99.90;;;;;;7387813;19;20341;-81
2023/02/20 08:57:13;;;;;;;3.50;3.20;;;7.10;99.90;;;;;;7387166;19;20336;-78
2023/02/20 08:59:38;;;;;;;3.85;3.22;;;7.10;99.90;;;;;;7385470;19;20399;-80
2023/02/20 09:02:04;;;;;;;4.55;3.15;;;7.20;99.90;;;;;;7382309;19;20339;-79
2023/02/20 09:04:30;;;;;;;3.60;3.30;;;7.20;99.90;;;;;;7388764;19;20355;-78
2023/02/20 09:06:56;;;;;;;4.37;3.33;;;7.20;99.90;;;;;;7386327;19;20325;-80
2023/02/20 09:09:21;;;;;;;3.20;2.65;;;7.20;99.90;;;;;;7386098;19;20323;-83
2023/02/20 09:11:47;;;;;;;2.80;2.60;;;7.30;99.90;;;;;;7386870;19;20392;-84
2023/02/20 09:14:12;;;;;;;3.13;2.83;;;7.30;99.90;;;;;;7386510;19;20300;-80
2023/02/20 09:16:40;;;;;;;3.20;2.90;;;7.30;99.90;;;;;;7386359;19;20408;-79
2023/02/20 09:19:07;;;;;;;3.90;2.88;;;7.30;99.90;;;;;;7382946;19;20328;-77
2023/02/20 09:21:33;;;;;;;5.82;2.80;;;7.30;99.90;;;;;;7383961;19;20328;-84
2023/02/20 09:23:59;;;;;;;3.13;2.50;;;7.30;99.90;;;;;;7384580;19;20341;-80
2023/02/20 09:26:24;;;;;;;3.05;2.40;;;7.30;99.90;;;;;;7387103;19;20320;-78
2023/02/20 09:28:50;;;;;;;2.77;2.57;;;7.30;99.90;;;;;;7396998;19;20838;-83
2023/02/20 09:31:18;;;;;;;3.20;2.90;;;7.30;99.90;;;;;;7393107;19;20312;-80
2023/02/20 09:33:45;;;;;;;3.83;2.70;;;7.40;99.90;;;;;;7396085;19;20945;-78
2023/02/20 09:36:11;;;;;;;3.55;2.67;;;7.30;99.90;;;;;;7388181;19;20343;-79
2023/02/20 09:38:37;;;;;;;3.72;2.78;;;7.40;99.90;;;;;;7387853;19;20391;-81
2023/02/20 09:41:03;;;;;;;3.77;2.70;;;7.40;99.90;;;;;;7384849;19;20909;-78
2023/02/20 09:43:35;;;;;;;3.22;2.88;;;7.40;99.90;;;;;;7382574;19;20320;-79
2023/02/20 09:46:13;;;;;;;5.25;4.63;;;7.40;99.90;;;;;;7387849;19;20400;-76
2023/02/20 09:49:00;;;;;;;3.30;3.00;;;7.50;99.90;;;;;;7384022;19;20353;-85
2023/02/20 09:51:37;;;;;;;4.28;2.90;;;7.50;99.90;;;;;;7286143;19;2004397;-81
2023/02/20 09:54:27;;;;;;;3.38;3.08;;;7.50;99.90;;;;;;7384061;19;21214;-78
2023/02/20 09:56:56;;;;;;;3.85;3.45;;;7.60;99.90;;;;;;7289576;19;2004517;-79
2023/02/20 09:59:26;;;;;;;3.78;3.38;;;7.60;99.90;;;;;;7385075;19;20633;-79
2023/02/20 10:02:00;;;;;;;3.65;3.35;;;7.60;99.90;;;;;;7383880;19;20324;-80
2023/02/20 10:04:30;;;;;;;4.22;3.35;;;7.70;99.90;;;;;;7385056;19;20349;-78
2023/02/20 10:07:01;;;;;;;3.42;3.13;;;7.80;99.90;;;;;;7382638;19;20388;-80
2023/02/20 10:09:26;;;;;;;3.55;3.25;;;7.80;99.90;;;;;;7382442;19;20444;-79
2023/02/20 10:12:04;;;;;;;3.80;3.40;;;7.80;99.90;;;;;;7383349;19;21241;-79
2023/02/20 10:14:34;;;;;;;3.92;3.53;;;7.90;99.90;;;;;;7381820;19;20308;-81
2023/02/20 10:17:23;;;;;;;3.78;3.10;;;8.00;99.90;;;;;;7383403;19;20884;-78
2023/02/20 10:19:50;;;;;;;3.20;2.90;;;8.00;99.90;;;;;;7384848;19;20309;-78
2023/02/20 10:22:30;;;;;;;3.30;3.00;;;8.10;99.90;;;;;;7386343;19;20332;-80
2023/02/20 10:25:01;;;;;;;4.07;3.30;;;8.20;99.90;;;;;;7284496;19;2004665;-81
2023/02/20 10:27:47;;;;;;;4.93;3.60;;;8.10;99.90;;;;;;7385918;19;20916;-80
2023/02/20 10:30:14;;;;;;;3.78;3.40;;;8.20;99.90;;;;;;7379915;19;20327;-78
2023/02/20 10:32:49;;;;;;;3.72;3.30;;;8.20;99.90;;;;;;7360861;19;20348;-89
2023/02/20 10:35:22;;;;;;;3.37;3.07;;;8.20;99.90;;;;;;7406873;19;20352;-90
2023/02/20 10:37:58;;;;;;;3.60;3.30;;;8.20;99.90;;;;;;7413783;19;20321;-89
2023/02/20 10:40:30;;;;;;;3.65;3.00;;;8.30;99.90;;;;;;7308757;19;2004187;-92
2023/02/20 10:43:17;;;;;;;3.33;3.00;;;8.30;99.90;;;;;;7410765;19;20308;-90
2023/02/20 10:46:01;;;;;;;3.33;2.90;;;8.40;99.90;;;;;;7407317;19;20391;-78
2023/02/20 10:48:29;;;;;;;3.00;2.70;;;8.60;99.90;;;;;;7292783;19;2010495;-83
2023/02/20 10:51:41;;;;;;;3.37;3.00;;;8.70;99.90;;;;;;7394927;19;20337;-81
2023/02/20 10:54:12;;;;;;;3.00;2.70;;;8.80;99.90;;;;;;7290721;19;2004544;-89
2023/02/20 10:56:42;;;;;;;2.92;2.70;;;8.90;99.90;;;;;;7392830;19;20329;-83
2023/02/20 10:59:24;;;;;;;2.65;2.45;;;8.90;99.90;;;;;;7372018;19;20478;-86
2023/02/20 11:01:53;;;;;;;3.00;2.30;;;8.90;99.90;;;;;;7390786;19;20403;-78
2023/02/20 11:04:34;;;;;;;3.38;2.50;;;8.90;99.90;;;;;;7389199;19;20361;-79
2023/02/20 11:07:06;;;;;;;2.60;2.40;;;9.00;99.90;;;;;;7290225;19;2004391;-82
2023/02/20 11:09:32;;;;;;;2.73;2.30;;;9.20;99.90;;;;;;7391798;19;20326;-81
2023/02/20 11:11:58;;;;;;;2.30;2.10;;;9.30;99.90;;;;;;7392778;19;22319;-85
2023/02/20 11:14:40;;;;;;;2.40;2.20;;;9.30;99.90;;;;;;7392984;19;20357;-86
2023/02/20 11:17:14;;;;;;;2.92;2.33;;;9.40;99.90;;;;;;7392718;19;21114;-80
2023/02/20 11:19:49;;;;;;;2.58;2.25;;;9.50;99.90;;;;;;7390894;19;20349;-85
2023/02/20 11:22:16;;;;;;;2.75;2.55;;;9.70;99.90;;;;;;7392467;19;20778;-86
2023/02/20 11:24:42;;;;;;;2.42;2.10;;;9.80;99.90;;;;;;7391512;19;20377;-87
2023/02/20 11:27:13;;;;;;;3.03;2.55;;;10.00;99.90;;;;;;7389108;19;20887;-81
2023/02/20 11:30:00;;;;;;;3.00;2.38;;;10.10;99.90;;;;;;7384521;19;20348;-81
2023/02/20 11:32:38;;;;;;;2.40;2.20;;;10.20;99.90;;;;;;7286548;19;2004254;-81
2023/02/20 11:35:16;;;;;;;3.10;2.00;;;10.20;99.90;;;;;;7389942;19;20313;-78
2023/02/20 11:37:43;;;;;;;2.88;2.53;;;10.30;99.90;;;;;;7381822;19;20332;-83
2023/02/20 11:40:35;;;;;;;4.00;2.50;;;10.20;99.90;;;;;;7388923;19;20324;-81
2023/02/20 11:43:13;;;;;;;2.13;1.92;;;10.30;99.90;;;;;;7282894;19;2004172;-82
2023/02/20 11:45:39;;;;;;;2.70;2.40;;;10.30;99.90;;;;;;7391776;19;20323;-82
2023/02/20 11:48:12;;;;;;;2.15;1.90;;;10.40;99.90;;;;;;7389497;19;20413;-81
2023/02/20 11:50:41;;;;;;;2.47;2.15;;;10.50;99.90;;;;;;7387989;19;20363;-84
2023/02/20 11:53:09;;;;;;;2.20;1.92;;;10.50;99.90;;;;;;7384333;19;20320;-83
2023/02/20 11:55:34;;;;;;;3.00;2.03;;;10.50;99.90;;;;;;7385117;19;20343;-81
2023/02/20 11:58:00;;;;;;;2.08;1.85;;;10.40;99.90;;;;;;7386113;19;20413;-80
2023/02/20 12:00:42;;;;;;;2.85;1.92;;;10.40;99.90;;;;;;7388718;19;20327;-81
2023/02/20 12:03:12;;;;;;;5.18;2.50;;;10.50;99.90;;;;;;7391319;19;20331;-90
2023/02/20 12:05:45;;;;;;;2.25;1.92;;;10.70;99.90;;;;;;7386143;19;20389;-80
2023/02/20 12:08:22;;;;;;;1.98;1.80;;;10.70;99.90;;;;;;7389022;19;20343;-79
2023/02/20 12:10:51;;;;;;;2.22;2.03;;;10.70;99.90;;;;;;7391503;19;20374;-81
2023/02/20 12:13:16;;;;;;;3.75;2.10;;;10.80;99.90;;;;;;7394169;19;20316;-79
2023/02/20 12:15:46;;;;;;;1.60;1.50;;;10.90;99.90;;;;;;7388282;19;20331;-79
2023/02/20 12:18:28;;;;;;;1.80;1.70;;;10.90;99.90;;;;;;7390203;19;20329;-84
2023/02/20 12:21:14;;;;;;;3.22;1.85;;;10.90;99.90;;;;;;7288740;19;2020270;-84
2023/02/20 12:24:01;;;;;;;1.60;1.50;;;10.90;99.90;;;;;;7392273;19;20340;-93
2023/02/20 12:26:33;;;;;;;1.80;1.70;;;10.90;99.90;;;;;;7296071;19;2004231;-90
2023/02/20 12:29:21;;;;;;;2.10;1.38;;;10.90;99.90;;;;;;7389247;19;20420;-80
2023/02/20 12:32:09;;;;;;;2.08;1.90;;;10.90;99.90;;;;;;7392476;19;20325;-82
2023/02/20 12:35:08;;;;;;;1.90;1.80;;;10.80;99.90;;;;;;7285190;19;2004433;-81
2023/02/20 12:37:58;;;;;;;1.90;1.80;;;10.90;99.90;;;;;;7290136;19;2004245;-84
2023/02/20 12:40:36;;;;;;;2.20;2.00;;;11.00;99.90;;;;;;7292737;19;2004223;-80
2023/02/20 12:43:14;;;;;;;2.15;1.98;;;10.90;99.90;;;;;;7392045;19;20321;-82
2023/02/20 12:46:11;;;;;;;2.60;2.40;;;10.90;99.90;;;;;;7396994;19;20357;-83
2023/02/20 12:48:41;;;;;;;2.65;2.10;;;10.90;99.90;;;;;;7289371;19;2004341;-87
2023/02/20 12:51:27;;;;;;;2.40;2.20;;;10.70;99.90;;;;;;7389812;19;20328;-83
2023/02/20 12:53:59;;;;;;;2.42;2.00;;;10.70;99.90;;;;;;7281111;19;2004348;-87
2023/02/20 12:57:14;;;;;;;2.60;2.37;;;10.50;99.90;;;;;;7383425;19;20346;-80
2023/02/20 13:00:06;;;;;;;2.93;2.37;;;10.60;99.90;;;;;;7278976;19;2004481;-81
2023/02/20 13:02:36;;;;;;;2.38;2.17;;;10.70;99.90;;;;;;7285432;19;2005457;-88
2023/02/20 13:05:03;;;;;;;3.38;2.05;;;10.80;99.90;;;;;;7388072;19;20318;-81
2023/02/20 13:07:57;;;;;;;3.30;2.10;;;10.90;99.90;;;;;;7388512;19;20358;-84
2023/02/20 13:10:46;;;;;;;3.85;2.58;;;10.90;99.90;;;;;;7285604;19;2019064;-84
2023/02/20 13:13:11;;;;;;;2.38;1.90;;;11.00;99.90;;;;;;7387366;19;21336;-79
2023/02/20 13:15:40;;;;;;;2.50;2.30;;;11.10;99.90;;;;;;7386760;19;20328;-80
2023/02/20 13:18:28;;;;;;;2.28;2.08;;;10.90;99.90;;;;;;7388993;19;20343;-85
2023/02/20 13:21:00;;;;;;;2.33;2.13;;;10.90;99.90;;;;;;7292279;19;2004202;-91
2023/02/20 13:23:30;;;;;;;3.20;2.45;;;10.90;99.90;;;;;;7394507;19;20325;-88
2023/02/20 13:25:56;;;;;;;3.67;2.83;;;11.00;99.90;;;;;;7389547;19;20329;-83